Terminal Aerodrome Forecast
Issued by NWS

Home | Current Version | Previous Version | Text Only | Print | Product List | Glossary On
Versions: 1 2 3 4 5 6 7 8 9 10 11 12 13 14 15 16 17 18 19
000
FTUS43 KGRB 201720
TAFMTW
TAF
KMTW 201720Z 2018/2118 27010G17KT P6SM SCT040 OVC090
      TEMPO 2018/2021 BKN040
     FM202100 29009KT P6SM BKN050
     FM210000 30008KT P6SM SCT060
     FM210400 VRB03KT P6SM SKC
      TEMPO 2108/2111 4SM BR
     FM211600 23006KT P6SM SCT040=

USA.gov is the U.S. government's official web portal to all federal, state and local government web resources and services.